Time;durP1;ratioP1;P1;durP2;ratioP2;P2;SDS_P1;SDS_P2;PMS_P1;PMS_P2;Temp;Humidity;BMP_temperature;BMP_pressure;BME280_temperature;BME280_humidity;BME280_pressure;Samples;Min_cycle;Max_cycle;Signal;HPM_P1;HPM_P2
2023/09/30 00:02:05;;;;;;;11.20;5.33;;;;;;;21.76;52.73;98273.09;5033642;28;20282;-70
2023/09/30 00:04:30;;;;;;;10.13;5.20;;;;;;;21.73;52.63;98273.47;5034506;28;20219;-70
2023/09/30 00:06:55;;;;;;;12.10;6.10;;;;;;;21.71;52.90;98265.69;5032712;28;20667;-70
2023/09/30 00:09:21;;;;;;;12.93;5.60;;;;;;;21.70;53.02;98268.53;5030141;28;20275;-71
2023/09/30 00:11:47;;;;;;;12.60;5.60;;;;;;;21.61;53.12;98260.72;5041645;28;20230;-70
2023/09/30 00:14:12;;;;;;;8.90;4.10;;;;;;;21.63;53.18;98261.34;5038705;28;20265;-72
2023/09/30 00:16:38;;;;;;;11.30;5.30;;;;;;;21.63;52.93;98263.16;5041169;28;20910;-71
2023/09/30 00:19:03;;;;;;;10.67;5.00;;;;;;;21.63;53.15;98256.00;5032438;28;20195;-71
2023/09/30 00:21:29;;;;;;;13.27;5.40;;;;;;;21.55;53.17;98264.13;5033993;28;20191;-73
2023/09/30 00:23:55;;;;;;;12.03;5.63;;;;;;;21.55;53.50;98253.47;5032912;28;20596;-73
2023/09/30 00:26:21;;;;;;;11.00;4.70;;;;;;;21.56;53.11;98255.09;5021838;28;20214;-71
2023/09/30 00:28:47;;;;;;;8.20;4.47;;;;;;;21.53;53.14;98255.53;5030588;28;20690;-72
2023/09/30 00:31:12;;;;;;;9.37;4.23;;;;;;;21.50;53.39;98253.25;5040914;28;20504;-71
2023/09/30 00:33:38;;;;;;;5.43;3.47;;;;;;;21.51;52.93;98252.22;5025252;28;20332;-71
2023/09/30 00:36:10;;;;;;;8.77;3.70;;;;;;;21.51;53.22;98254.91;5028346;28;20660;-72
2023/09/30 00:38:40;;;;;;;7.43;3.83;;;;;;;21.49;53.08;98267.59;5034212;28;20668;-71
2023/09/30 00:41:06;;;;;;;11.13;4.07;;;;;;;21.51;53.05;98270.91;5033858;28;20466;-70
2023/09/30 00:43:32;;;;;;;8.80;3.77;;;;;;;21.45;53.10;98261.00;5038783;28;20464;-70
2023/09/30 00:46:18;;;;;;;7.30;3.80;;;;;;;21.39;53.52;98259.13;5028762;28;20430;-71
2023/09/30 00:48:43;;;;;;;9.83;4.20;;;;;;;21.41;53.39;98259.78;5033043;28;20266;-72
2023/09/30 00:51:09;;;;;;;10.90;4.40;;;;;;;21.39;53.45;98267.13;5027960;28;20497;-71
2023/09/30 00:53:34;;;;;;;13.17;5.20;;;;;;;21.29;53.69;98268.31;5034848;28;20219;-71
2023/09/30 00:56:00;;;;;;;9.30;4.83;;;;;;;21.21;54.19;98272.97;5028285;28;20759;-70
2023/09/30 00:58:28;;;;;;;9.50;4.53;;;;;;;21.09;54.04;98265.53;5026742;28;20196;-71
2023/09/30 01:00:55;;;;;;;9.10;3.97;;;;;;;21.04;54.51;98269.78;5030517;28;20274;-70
2023/09/30 01:03:21;;;;;;;10.50;4.50;;;;;;;20.98;54.95;98272.19;5028879;28;20446;-71
2023/09/30 01:05:47;;;;;;;8.10;4.03;;;;;;;20.96;54.96;98273.41;5040484;28;20949;-70
2023/09/30 01:08:13;;;;;;;11.83;4.40;;;;;;;20.95;55.20;98269.91;5030030;28;20438;-73
2023/09/30 01:10:38;;;;;;;7.03;3.90;;;;;;;20.99;55.14;98273.00;5028032;28;20188;-73
2023/09/30 01:13:04;;;;;;;7.77;3.90;;;;;;;21.00;55.01;98277.31;5038385;28;20222;-72
2023/09/30 01:15:29;;;;;;;12.53;4.23;;;;;;;20.99;54.98;98273.84;5040092;28;20225;-71
2023/09/30 01:17:55;;;;;;;7.93;3.93;;;;;;;21.06;54.75;98275.72;5029021;28;20326;-71
2023/09/30 01:20:23;;;;;;;7.50;3.77;;;;;;;21.04;55.14;98272.44;5044009;28;20211;-69
2023/09/30 01:22:48;;;;;;;10.10;4.40;;;;;;;21.07;55.36;98280.88;5035038;28;20225;-72
2023/09/30 01:25:14;;;;;;;10.40;4.10;;;;;;;21.08;55.37;98284.34;5027134;28;20430;-71
2023/09/30 01:27:39;;;;;;;8.27;3.80;;;;;;;21.11;55.06;98266.13;5032105;28;20179;-70
2023/09/30 01:30:05;;;;;;;8.27;4.50;;;;;;;21.15;54.74;98266.59;5030360;28;20211;-71
2023/09/30 01:32:31;;;;;;;7.00;4.20;;;;;;;21.12;55.17;98274.97;5015437;28;20213;-72
2023/09/30 01:34:56;;;;;;;7.40;3.80;;;;;;;21.13;54.90;98280.09;5034776;28;20926;-73
2023/09/30 01:37:22;;;;;;;9.83;3.90;;;;;;;21.15;55.04;98282.56;5032954;28;20677;-70
2023/09/30 01:39:50;;;;;;;9.40;4.00;;;;;;;21.16;54.83;98279.69;5033209;28;20630;-71
2023/09/30 01:42:15;;;;;;;6.23;3.27;;;;;;;21.15;55.08;98282.56;5043293;28;20194;-70
2023/09/30 01:44:41;;;;;;;6.13;3.67;;;;;;;21.11;55.43;98281.31;5039942;28;20826;-71
2023/09/30 01:47:06;;;;;;;8.40;4.23;;;;;;;21.17;55.00;98280.53;5036433;28;20183;-70
2023/09/30 01:49:31;;;;;;;7.70;3.33;;;;;;;21.17;55.21;98280.53;5040816;28;20194;-73
2023/09/30 01:51:57;;;;;;;7.50;3.80;;;;;;;21.16;55.09;98276.22;5043876;28;20207;-72
2023/09/30 01:54:23;;;;;;;10.60;3.20;;;;;;;21.18;55.09;98269.66;5039632;28;20215;-72
2023/09/30 01:56:49;;;;;;;6.50;3.47;;;;;;;21.14;54.82;98270.25;5038031;28;20191;-71
2023/09/30 01:59:15;;;;;;;6.30;3.47;;;;;;;21.06;55.17;98276.56;5034114;28;20564;-71
2023/09/30 02:01:40;;;;;;;6.60;3.40;;;;;;;21.05;55.78;98266.06;5046198;28;20511;-72
2023/09/30 02:04:06;;;;;;;4.37;2.83;;;;;;;20.98;55.58;98266.88;5042750;28;20204;-73
2023/09/30 02:06:32;;;;;;;5.60;3.03;;;;;;;20.97;55.82;98264.41;5042695;28;20183;-71
2023/09/30 02:08:57;;;;;;;4.97;3.03;;;;;;;20.97;55.79;98267.06;5044202;28;20284;-71
2023/09/30 02:11:23;;;;;;;5.87;2.97;;;;;;;20.99;55.77;98263.19;5033237;28;20684;-72
2023/09/30 02:13:48;;;;;;;6.30;3.17;;;;;;;20.97;55.69;98265.22;5039466;28;20247;-72
2023/09/30 02:16:14;;;;;;;8.10;3.43;;;;;;;20.91;55.50;98265.16;5027282;28;20215;-71
2023/09/30 02:18:42;;;;;;;9.40;3.50;;;;;;;20.84;55.77;98275.75;5023326;28;20195;-72
2023/09/30 02:21:08;;;;;;;8.83;3.90;;;;;;;20.80;56.02;98279.81;5041682;28;20680;-72
2023/09/30 02:23:34;;;;;;;7.20;3.40;;;;;;;20.77;55.98;98281.03;5036730;28;20450;-73
2023/09/30 02:26:00;;;;;;;5.30;3.03;;;;;;;20.74;56.10;98275.25;5028897;28;20434;-70
2023/09/30 02:28:25;;;;;;;9.03;3.47;;;;;;;20.74;55.83;98277.91;5041605;28;20980;-70
2023/09/30 02:30:52;;;;;;;5.23;2.93;;;;;;;20.64;56.16;98283.56;5034376;28;20627;-72
2023/09/30 02:33:17;;;;;;;4.53;3.17;;;;;;;20.55;56.41;98278.38;5032151;28;20677;-71
2023/09/30 02:35:45;;;;;;;8.03;3.70;;;;;;;20.46;56.50;98279.50;5045185;28;20473;-71
2023/09/30 02:38:11;;;;;;;8.73;4.10;;;;;;;20.44;56.38;98286.84;5028196;28;20245;-71
2023/09/30 02:40:38;;;;;;;8.07;3.57;;;;;;;20.47;56.87;98296.28;5028015;28;20440;-72
2023/09/30 02:43:04;;;;;;;5.43;3.30;;;;;;;20.42;57.57;98289.69;5035714;28;20541;-72
2023/09/30 02:45:29;;;;;;;5.10;3.53;;;;;;;20.47;57.14;98293.63;5041326;28;21022;-73
2023/09/30 02:47:55;;;;;;;8.07;3.40;;;;;;;20.42;57.36;98288.88;5037602;28;20441;-71
2023/09/30 02:50:21;;;;;;;5.33;3.03;;;;;;;20.34;57.57;98297.81;5024459;28;20194;-71
2023/09/30 02:52:46;;;;;;;5.17;2.83;;;;;;;20.16;57.61;98297.41;5026773;28;20700;-73
2023/09/30 02:55:12;;;;;;;7.33;3.20;;;;;;;20.15;57.81;98303.75;5030669;28;20437;-72
2023/09/30 02:57:38;;;;;;;5.33;3.37;;;;;;;20.22;57.92;98296.66;5031760;28;20187;-70
2023/09/30 03:00:14;;;;;;;4.93;2.80;;;;;;;20.23;57.83;98285.81;5032654;28;20274;-72
2023/09/30 03:02:39;;;;;;;4.97;2.93;;;;;;;20.29;57.79;98294.88;5037444;28;20239;-71
2023/09/30 03:05:06;;;;;;;5.90;3.23;;;;;;;20.33;57.45;98296.16;5041807;28;20444;-70
2023/09/30 03:07:33;;;;;;;4.77;3.10;;;;;;;20.36;57.52;98303.78;5032613;28;20794;-72
2023/09/30 03:09:59;;;;;;;6.43;3.27;;;;;;;20.40;57.61;98306.88;5030394;28;20446;-72
2023/09/30 03:12:25;;;;;;;5.13;3.03;;;;;;;20.40;57.63;98321.03;5031123;28;20466;-71
2023/09/30 03:14:51;;;;;;;7.23;3.40;;;;;;;20.41;57.48;98322.66;5045157;28;20534;-71
2023/09/30 03:17:17;;;;;;;5.13;2.90;;;;;;;20.42;57.67;98332.28;5032602;28;20196;-72
2023/09/30 03:19:43;;;;;;;5.83;3.30;;;;;;;20.43;57.73;98322.47;5040753;28;20191;-70
2023/09/30 03:22:11;;;;;;;6.07;3.07;;;;;;;20.42;57.52;98312.84;5032493;28;20433;-71
2023/09/30 03:24:38;;;;;;;5.23;3.00;;;;;;;20.39;57.85;98314.06;5032386;28;20459;-70
2023/09/30 03:27:03;;;;;;;4.37;2.83;;;;;;;20.38;57.83;98331.03;5029557;28;20504;-71
2023/09/30 03:29:29;;;;;;;5.57;3.40;;;;;;;20.33;57.96;98328.09;5041924;28;20442;-70
2023/09/30 03:31:54;;;;;;;10.27;2.90;;;;;;;20.35;57.57;98315.44;5036604;28;20210;-70
2023/09/30 03:34:20;;;;;;;5.00;3.30;;;;;;;20.38;57.53;98320.38;5041654;28;20737;-72
2023/09/30 03:36:45;;;;;;;5.10;3.50;;;;;;;20.29;57.85;98326.81;5042046;28;20187;-71
2023/09/30 03:39:14;;;;;;;5.97;3.43;;;;;;;20.31;57.76;98327.47;5037167;28;20191;-71
2023/09/30 03:41:40;;;;;;;4.50;2.87;;;;;;;20.29;57.93;98320.69;5031353;28;20216;-70
2023/09/30 03:44:06;;;;;;;4.70;3.10;;;;;;;20.28;58.04;98314.53;5038016;28;20453;-70
2023/09/30 03:46:31;;;;;;;6.97;3.10;;;;;;;20.18;58.49;98300.69;5028043;28;20195;-71
2023/09/30 03:48:57;;;;;;;6.80;3.73;;;;;;;20.26;58.08;98300.59;5041456;28;20201;-71
2023/09/30 03:51:24;;;;;;;6.80;3.53;;;;;;;20.26;58.20;98289.94;5019617;28;20290;-73
2023/09/30 03:53:50;;;;;;;5.90;3.30;;;;;;;20.26;58.08;98290.75;5028647;28;20636;-71
2023/09/30 03:56:18;;;;;;;5.53;3.40;;;;;;;20.31;58.00;98281.41;5029133;28;20434;-71
2023/09/30 03:58:44;;;;;;;7.07;3.37;;;;;;;20.30;58.03;98296.53;5032997;28;20808;-71
2023/09/30 04:01:13;;;;;;;5.70;3.07;;;;;;;20.29;57.91;98294.06;5033043;28;20431;-71
2023/09/30 04:03:39;;;;;;;4.63;3.20;;;;;;;20.25;58.60;98293.63;5037658;28;20545;-71
2023/09/30 04:06:06;;;;;;;4.10;2.60;;;;;;;20.26;58.26;98288.09;5010887;28;20522;-71
2023/09/30 04:08:33;;;;;;;6.67;3.33;;;;;;;20.26;58.22;98280.13;5027148;28;20208;-71
2023/09/30 04:11:05;;;;;;;6.67;3.37;;;;;;;20.28;58.33;98292.41;5028790;28;20465;-71
2023/09/30 04:13:31;;;;;;;5.90;3.17;;;;;;;20.27;58.20;98302.25;5031707;28;20505;-72
2023/09/30 04:15:58;;;;;;;7.50;3.07;;;;;;;20.27;58.35;98299.59;5029320;28;20458;-71
2023/09/30 04:18:25;;;;;;;6.30;3.20;;;;;;;20.26;58.35;98304.06;5027265;28;20192;-70
2023/09/30 04:20:51;;;;;;;5.03;3.20;;;;;;;20.20;58.11;98307.50;5033426;28;20442;-71
2023/09/30 04:23:19;;;;;;;6.17;3.10;;;;;;;20.18;58.37;98303.34;5028510;28;21054;-71
2023/09/30 04:25:46;;;;;;;7.40;3.27;;;;;;;20.12;58.46;98301.47;5027306;28;20434;-71
2023/09/30 04:28:15;;;;;;;6.23;3.23;;;;;;;20.09;58.47;98303.47;5029884;28;20513;-70
2023/09/30 04:30:41;;;;;;;6.53;3.27;;;;;;;19.99;59.22;98302.09;5026544;28;20451;-72
2023/09/30 04:33:07;;;;;;;6.63;3.73;;;;;;;20.01;58.97;98306.25;5035435;28;20536;-69
2023/09/30 04:35:35;;;;;;;4.67;2.97;;;;;;;20.02;58.96;98305.25;5032243;28;20183;-71
2023/09/30 04:38:01;;;;;;;7.40;3.23;;;;;;;20.06;59.01;98306.50;5027842;28;20426;-72
2023/09/30 04:40:27;;;;;;;7.87;3.30;;;;;;;20.09;58.92;98306.13;5036164;28;20519;-70
2023/09/30 04:42:55;;;;;;;4.03;2.87;;;;;;;20.14;59.05;98312.75;5029347;28;20859;-71
2023/09/30 04:45:20;;;;;;;6.13;3.27;;;;;;;20.16;58.86;98329.34;5032533;28;20188;-70
2023/09/30 04:47:48;;;;;;;9.20;3.87;;;;;;;20.17;58.67;98334.47;5036044;28;20939;-72
2023/09/30 04:50:16;;;;;;;4.70;3.07;;;;;;;20.20;59.07;98334.13;5027850;28;20211;-72
2023/09/30 04:52:41;;;;;;;4.00;3.27;;;;;;;20.22;58.45;98336.56;5027155;28;20537;-71
2023/09/30 04:55:08;;;;;;;5.23;2.90;;;;;;;20.23;58.58;98327.59;5039130;28;20483;-72
2023/09/30 04:57:33;;;;;;;4.30;2.87;;;;;;;20.22;58.69;98329.44;5040907;28;20193;-70
2023/09/30 04:59:59;;;;;;;6.33;3.00;;;;;;;20.23;58.34;98336.38;5032711;28;20510;-70
2023/09/30 05:02:25;;;;;;;7.13;3.53;;;;;;;20.19;58.65;98336.94;5042106;28;20171;-70
2023/09/30 05:04:52;;;;;;;4.83;3.10;;;;;;;20.14;58.69;98339.34;5028920;28;20182;-70
2023/09/30 05:07:17;;;;;;;5.37;3.10;;;;;;;20.14;58.83;98345.47;5044138;28;20461;-71
2023/09/30 05:09:43;;;;;;;6.70;3.40;;;;;;;20.13;58.65;98346.50;5027505;28;20478;-71
2023/09/30 05:12:09;;;;;;;7.63;3.30;;;;;;;20.10;59.11;98360.16;5044760;28;20272;-72
2023/09/30 05:14:36;;;;;;;6.07;3.60;;;;;;;20.05;59.41;98346.59;5020225;28;20267;-71
2023/09/30 05:17:04;;;;;;;5.60;2.80;;;;;;;20.09;59.10;98359.34;5037319;28;20417;-71
2023/09/30 05:19:31;;;;;;;8.73;3.53;;;;;;;20.14;59.07;98350.00;5036136;28;20441;-71
2023/09/30 05:21:57;;;;;;;4.47;3.30;;;;;;;20.16;59.33;98356.78;5025982;28;20437;-72
2023/09/30 05:24:22;;;;;;;5.93;3.57;;;;;;;20.14;59.13;98356.13;5027996;28;20481;-70
2023/09/30 05:26:48;;;;;;;6.00;3.60;;;;;;;20.15;59.09;98351.66;5034919;28;20191;-71
2023/09/30 05:29:13;;;;;;;6.43;3.63;;;;;;;20.17;58.65;98346.94;5036188;28;20191;-71
2023/09/30 05:31:39;;;;;;;6.33;3.60;;;;;;;20.19;58.59;98343.09;5026364;28;20215;-71
2023/09/30 05:34:04;;;;;;;7.20;3.70;;;;;;;20.09;58.71;98343.38;5037474;28;20273;-72
2023/09/30 05:36:30;;;;;;;4.43;3.23;;;;;;;20.09;58.76;98348.72;5035570;28;20225;-72
2023/09/30 05:38:55;;;;;;;5.43;3.17;;;;;;;20.05;58.95;98346.59;5022195;28;20195;-71
2023/09/30 05:41:21;;;;;;;8.57;3.93;;;;;;;20.01;59.17;98340.00;5027077;28;20183;-70
2023/09/30 05:43:47;;;;;;;11.50;3.37;;;;;;;20.00;59.24;98349.84;5043328;28;20236;-71
2023/09/30 05:46:13;;;;;;;7.60;3.23;;;;;;;20.03;59.16;98346.81;5037470;28;20198;-71
2023/09/30 05:48:39;;;;;;;6.03;3.00;;;;;;;20.05;59.11;98347.41;5033322;28;20187;-72
2023/09/30 05:51:05;;;;;;;8.80;3.30;;;;;;;20.04;59.04;98347.63;5029683;28;20470;-71
2023/09/30 05:53:32;;;;;;;5.30;3.07;;;;;;;20.06;59.27;98353.59;5028350;28;21014;-72
2023/09/30 05:55:59;;;;;;;5.33;3.60;;;;;;;20.07;59.20;98372.00;5022586;28;20558;-71
2023/09/30 05:58:26;;;;;;;4.43;3.40;;;;;;;20.08;59.06;98367.53;5035886;28;20430;-71
2023/09/30 06:00:53;;;;;;;8.00;4.30;;;;;;;20.05;58.93;98375.88;5043156;28;20516;-71
2023/09/30 06:03:18;;;;;;;5.90;2.97;;;;;;;20.05;59.31;98368.72;5029824;28;20470;-71
2023/09/30 06:05:43;;;;;;;6.00;3.20;;;;;;;20.07;59.10;98371.19;5033988;28;20469;-71
2023/09/30 06:08:21;;;;;;;5.03;3.40;;;;;;;20.06;59.38;98366.88;5035746;28;20215;-72
2023/09/30 06:10:47;;;;;;;5.37;3.53;;;;;;;20.14;58.90;98365.97;5036337;28;20270;-71
2023/09/30 06:13:14;;;;;;;6.63;3.10;;;;;;;20.14;58.71;98368.63;5030303;28;20548;-71
2023/09/30 06:15:40;;;;;;;7.90;3.50;;;;;;;20.17;58.81;98373.56;5044041;28;20624;-72
2023/09/30 06:18:06;;;;;;;6.77;3.63;;;;;;;20.22;58.90;98393.31;5040224;28;20430;-71
2023/09/30 06:20:33;;;;;;;6.20;3.53;;;;;;;20.25;58.73;98394.75;5035633;28;20550;-72
2023/09/30 06:23:00;;;;;;;7.13;3.40;;;;;;;20.26;58.45;98394.56;5045129;28;20546;-72
2023/09/30 06:25:27;;;;;;;4.33;3.23;;;;;;;20.32;58.74;98397.50;5040249;28;20430;-72
2023/09/30 06:27:54;;;;;;;7.57;4.10;;;;;;;20.34;58.29;98404.28;5032191;28;20430;-71
2023/09/30 06:30:20;;;;;;;5.93;3.47;;;;;;;20.36;58.72;98399.59;5025043;28;20533;-72
2023/09/30 06:32:46;;;;;;;6.53;2.97;;;;;;;20.40;58.28;98403.56;5030434;28;20477;-71
2023/09/30 06:35:12;;;;;;;5.87;3.37;;;;;;;20.39;58.49;98406.38;5040375;28;20445;-72
2023/09/30 06:37:39;;;;;;;4.47;3.13;;;;;;;20.35;58.41;98400.63;5035550;28;20230;-71
2023/09/30 06:40:09;;;;;;;7.67;4.03;;;;;;;20.34;58.67;98401.63;5036043;28;20210;-71
2023/09/30 06:42:35;;;;;;;6.13;3.67;;;;;;;20.39;58.91;98401.06;5045536;28;20442;-70
2023/09/30 06:45:07;;;;;;;5.20;3.03;;;;;;;20.41;59.04;98399.84;5030554;28;20456;-72
2023/09/30 06:47:33;;;;;;;7.57;3.63;;;;;;;20.46;58.78;98412.63;5036821;28;20438;-71
2023/09/30 06:50:07;;;;;;;8.43;3.77;;;;;;;20.54;58.79;98417.84;5042182;28;20500;-70
2023/09/30 06:52:41;;;;;;;4.60;3.40;;;;;;;20.56;58.29;98426.47;5038602;28;20465;-70
2023/09/30 06:55:07;;;;;;;6.03;3.33;;;;;;;20.62;58.17;98424.91;5033833;28;20487;-71
2023/09/30 06:57:35;;;;;;;5.87;3.53;;;;;;;20.64;57.76;98430.88;5014750;28;20508;-70
2023/09/30 07:00:01;;;;;;;7.87;3.30;;;;;;;20.75;57.89;98436.75;5042231;28;20419;-69
2023/09/30 07:02:27;;;;;;;7.87;4.00;;;;;;;20.78;57.17;98441.72;5037083;28;20979;-70
2023/09/30 07:04:53;;;;;;;8.37;4.23;;;;;;;20.74;56.76;98433.22;5036775;28;20439;-70
2023/09/30 07:07:18;;;;;;;9.23;3.90;;;;;;;20.75;56.65;98423.44;5011397;28;20452;-71
2023/09/30 07:09:44;;;;;;;8.00;4.03;;;;;;;20.75;56.66;98412.78;5040521;28;20269;-72
2023/09/30 07:12:10;;;;;;;6.80;4.10;;;;;;;20.84;56.58;98414.28;5046040;28;20576;-71
2023/09/30 07:14:35;;;;;;;10.20;4.00;;;;;;;20.86;56.14;98412.28;5040155;28;20265;-71
2023/09/30 07:17:01;;;;;;;4.63;3.70;;;;;;;20.90;56.07;98410.88;5029639;28;20208;-72
2023/09/30 07:19:26;;;;;;;7.53;3.60;;;;;;;20.97;56.15;98418.94;5037072;28;20199;-72
2023/09/30 07:21:51;;;;;;;12.57;3.90;;;;;;;20.96;56.00;98420.78;5033179;28;20226;-71
2023/09/30 07:24:17;;;;;;;7.90;4.00;;;;;;;21.01;56.32;98410.38;5038692;28;20302;-71
2023/09/30 07:26:42;;;;;;;6.97;4.17;;;;;;;21.09;55.82;98421.91;5028869;28;20187;-71
2023/09/30 07:29:09;;;;;;;8.27;3.77;;;;;;;21.13;55.69;98433.84;5033623;28;20218;-71
2023/09/30 07:31:37;;;;;;;7.17;3.83;;;;;;;21.16;55.59;98436.16;5041833;28;20684;-71
2023/09/30 07:34:03;;;;;;;7.00;4.27;;;;;;;21.25;55.35;98451.00;5031596;28;20915;-71
2023/09/30 07:36:28;;;;;;;7.67;4.47;;;;;;;21.32;55.18;98453.72;5036447;28;20528;-72
2023/09/30 07:38:54;;;;;;;7.67;4.13;;;;;;;21.38;55.02;98446.78;5039476;28;20195;-71
2023/09/30 07:41:20;;;;;;;9.90;3.77;;;;;;;21.41;54.55;98430.41;5041517;28;20660;-72
2023/09/30 07:43:45;;;;;;;9.33;4.37;;;;;;;21.45;54.43;98431.66;5034873;28;20700;-71
2023/09/30 07:46:10;;;;;;;8.13;3.80;;;;;;;21.54;54.40;98433.19;5029859;28;20211;-71
2023/09/30 07:48:36;;;;;;;10.20;3.97;;;;;;;21.65;53.82;98447.84;5035151;28;20223;-73
2023/09/30 07:51:01;;;;;;;7.70;3.70;;;;;;;21.75;53.38;98450.19;5029485;28;20203;-71
2023/09/30 07:53:27;;;;;;;9.93;4.27;;;;;;;21.76;53.27;98451.84;5040777;28;20234;-71
2023/09/30 07:55:54;;;;;;;8.47;3.90;;;;;;;21.71;52.70;98462.25;5035281;28;20202;-71
2023/09/30 07:58:20;;;;;;;5.40;3.63;;;;;;;21.71;52.73;98462.25;5029709;28;20195;-70
2023/09/30 08:00:45;;;;;;;6.43;3.47;;;;;;;21.69;52.83;98464.28;5033731;28;20435;-71
2023/09/30 08:03:11;;;;;;;7.60;3.43;;;;;;;21.62;53.36;98470.41;5037344;28;20215;-71
2023/09/30 08:05:37;;;;;;;8.10;3.80;;;;;;;21.51;53.23;98460.25;5038503;28;20196;-72
2023/09/30 08:08:03;;;;;;;7.70;3.40;;;;;;;21.52;53.58;98458.38;5034673;28;20442;-71
2023/09/30 08:10:31;;;;;;;9.90;4.10;;;;;;;21.52;53.72;98466.38;5043187;28;20187;-71
2023/09/30 08:12:58;;;;;;;7.13;3.57;;;;;;;21.51;53.67;98454.91;5037419;28;20964;-71
2023/09/30 08:15:24;;;;;;;6.90;3.10;;;;;;;21.52;53.77;98450.38;5041510;28;20448;-72
2023/09/30 08:17:50;;;;;;;7.20;4.00;;;;;;;21.57;53.68;98447.97;5036180;28;20977;-71
2023/09/30 08:20:15;;;;;;;6.47;3.40;;;;;;;21.61;53.79;98450.09;5030211;28;20427;-71
2023/09/30 08:22:41;;;;;;;12.33;4.00;;;;;;;21.74;53.76;98453.88;5035433;28;20283;-70
2023/09/30 08:25:07;;;;;;;6.60;3.50;;;;;;;21.93;53.31;98449.69;5039643;28;20195;-70
2023/09/30 08:27:32;;;;;;;6.63;3.93;;;;;;;22.16;52.89;98448.59;5037296;28;20603;-71
2023/09/30 08:29:58;;;;;;;7.10;3.60;;;;;;;22.51;52.55;98449.41;5027835;28;20448;-71
2023/09/30 08:32:23;;;;;;;6.80;4.10;;;;;;;22.82;51.28;98448.06;5029858;28;20212;-71
2023/09/30 08:34:49;;;;;;;17.13;4.03;;;;;;;23.11;50.81;98446.09;5044595;28;20223;-72
2023/09/30 08:37:14;;;;;;;7.80;3.50;;;;;;;23.30;49.01;98457.06;5039792;28;20183;-71
2023/09/30 08:39:40;;;;;;;14.23;4.13;;;;;;;23.36;48.97;98452.75;5022384;28;20287;-71
2023/09/30 08:42:11;;;;;;;5.70;3.43;;;;;;;23.69;48.00;98452.72;5035015;28;20825;-72
2023/09/30 08:44:38;;;;;;;5.30;3.30;;;;;;;23.93;47.76;98445.09;5037376;28;20219;-71
2023/09/30 08:47:03;;;;;;;8.23;3.67;;;;;;;24.13;46.79;98434.34;5028120;28;20442;-70
2023/09/30 08:49:29;;;;;;;8.00;3.33;;;;;;;24.35;46.36;98432.22;5028946;28;20485;-73
2023/09/30 08:51:57;;;;;;;5.30;3.57;;;;;;;24.46;45.71;98440.63;5034469;28;20490;-72
2023/09/30 08:54:23;;;;;;;5.50;3.30;;;;;;;24.59;45.38;98453.97;5027414;28;20306;-71
2023/09/30 08:56:49;;;;;;;6.40;3.77;;;;;;;24.74;45.01;98447.53;5035578;28;20538;-70
2023/09/30 08:59:15;;;;;;;6.50;3.90;;;;;;;24.90;43.89;98433.66;5033186;28;20302;-70
2023/09/30 09:01:40;;;;;;;5.83;3.30;;;;;;;24.97;44.07;98436.28;5027900;28;20911;-71
2023/09/30 09:04:06;;;;;;;8.87;3.80;;;;;;;25.09;42.84;98429.19;5039529;28;20217;-72
2023/09/30 09:06:32;;;;;;;7.00;3.50;;;;;;;25.32;42.58;98417.06;5037515;28;20199;-72
2023/09/30 09:09:17;;;;;;;5.17;3.50;;;;;;;25.56;42.12;98423.50;5043587;28;20476;-71
2023/09/30 09:11:44;;;;;;;6.03;3.50;;;;;;;25.77;41.59;98424.13;5034192;28;20288;-71
2023/09/30 09:14:09;;;;;;;8.40;3.40;;;;;;;25.73;41.50;98425.59;5036295;28;20490;-71
2023/09/30 09:16:35;;;;;;;6.97;3.40;;;;;;;25.81;41.38;98424.50;5036534;28;20860;-71
2023/09/30 09:19:13;;;;;;;5.20;3.30;;;;;;;25.85;40.30;98441.81;5036907;28;20198;-71
2023/09/30 09:21:38;;;;;;;10.50;3.37;;;;;;;25.97;40.98;98452.63;5031927;28;20186;-71
2023/09/30 09:24:03;;;;;;;6.17;3.20;;;;;;;25.96;40.57;98443.78;5026571;28;20443;-70
2023/09/30 09:26:31;;;;;;;5.73;3.43;;;;;;;26.18;40.22;98441.50;5042137;28;20216;-72
2023/09/30 09:29:04;;;;;;;5.70;3.63;;;;;;;26.35;40.26;98438.19;5037304;28;20277;-72
2023/09/30 09:31:34;;;;;;;5.33;3.20;;;;;;;26.51;39.28;98448.34;5034529;28;20485;-71
2023/09/30 09:34:00;;;;;;;5.80;3.23;;;;;;;26.48;38.72;98454.16;5029021;28;20877;-71
2023/09/30 09:36:57;;;;;;;6.10;3.83;;;;;;;26.02;38.51;98444.75;5044246;28;20436;-72
2023/09/30 09:39:30;;;;;;;4.20;3.40;;;;;;;25.67;39.79;98434.56;5026209;28;20211;-71
2023/09/30 09:41:57;;;;;;;7.63;4.10;;;;;;;25.73;40.50;98434.50;5043683;28;20429;-72
2023/09/30 09:44:25;;;;;;;6.50;3.90;;;;;;;25.93;41.03;98433.47;5036413;28;20458;-71
2023/09/30 09:46:50;;;;;;;6.70;3.60;;;;;;;26.37;40.00;98428.06;5041756;28;20485;-70
2023/09/30 09:49:17;;;;;;;8.97;4.30;;;;;;;26.55;38.75;98423.72;5029833;28;20426;-72
2023/09/30 09:51:44;;;;;;;10.17;7.53;;;;;;;26.40;38.77;98427.59;5034669;28;20560;-71
2023/09/30 09:54:11;;;;;;;8.83;6.17;;;;;;;26.30;38.88;98416.56;5035745;28;20493;-69
2023/09/30 09:56:36;;;;;;;7.27;4.43;;;;;;;26.21;39.29;98416.06;5040721;28;20516;-71
2023/09/30 09:59:04;;;;;;;10.57;7.20;;;;;;;26.32;39.29;98417.19;5041808;28;20533;-70
2023/09/30 10:01:30;;;;;;;10.70;7.23;;;;;;;26.48;39.34;98427.28;5035937;28;20176;-72
2023/09/30 10:03:56;;;;;;;9.77;7.27;;;;;;;26.73;39.00;98420.97;5035842;28;20468;-70
2023/09/30 10:06:22;;;;;;;7.90;4.77;;;;;;;26.92;38.94;98429.03;5033627;28;20425;-71
2023/09/30 10:08:50;;;;;;;7.60;3.83;;;;;;;26.95;38.23;98425.88;5033882;28;20191;-71
2023/09/30 10:11:20;;;;;;;11.27;5.03;;;;;;;26.79;38.50;98428.16;5037393;28;20207;-71
2023/09/30 10:14:03;;;;;;;15.23;9.47;;;;;;;26.75;38.69;98436.88;5031529;28;20532;-71
2023/09/30 10:16:34;;;;;;;7.73;5.60;;;;;;;26.72;39.02;98424.69;5035677;28;20444;-71
2023/09/30 10:19:22;;;;;;;8.70;5.20;;;;;;;26.50;38.90;98409.06;5031020;28;20434;-72
2023/09/30 10:22:15;;;;;;;11.70;7.23;;;;;;;26.49;39.54;98404.75;5042931;28;20449;-71
2023/09/30 10:24:41;;;;;;;9.60;4.60;;;;;;;26.31;38.75;98408.28;5029722;28;20503;-72
2023/09/30 10:27:25;;;;;;;8.87;5.80;;;;;;;26.32;38.72;98401.06;5034827;28;20829;-71
2023/09/30 10:30:05;;;;;;;11.10;7.87;;;;;;;26.68;38.95;98404.72;5043871;28;20203;-71
2023/09/30 10:32:53;;;;;;;12.53;7.20;;;;;;;27.18;38.26;98406.28;5029443;28;20657;-71
2023/09/30 10:35:18;;;;;;;6.90;4.00;;;;;;;27.54;36.72;98399.09;5030857;28;20449;-73
2023/09/30 10:37:44;;;;;;;6.73;3.93;;;;;;;27.80;35.97;98401.53;5039022;28;20927;-71
2023/09/30 10:40:29;;;;;;;9.67;4.50;;;;;;;28.03;35.06;98406.91;5045845;28;20256;-71
2023/09/30 10:42:55;;;;;;;7.97;3.90;;;;;;;28.13;35.25;98397.41;5030900;28;20521;-73
2023/09/30 10:45:37;;;;;;;9.20;4.53;;;;;;;28.30;33.52;98394.78;5049387;28;20512;-71
2023/09/30 10:48:38;;;;;;;9.40;5.57;;;;;;;28.39;33.84;98397.94;5030273;28;20495;-70
2023/09/30 10:51:14;;;;;;;5.87;3.80;;;;;;;28.38;33.35;98388.22;5033243;28;20453;-72
2023/09/30 10:53:56;;;;;;;7.53;4.70;;;;;;;28.40;33.93;98389.63;5030508;28;20974;-71
2023/09/30 10:56:22;;;;;;;8.33;4.33;;;;;;;28.53;34.40;98379.63;5030851;28;20442;-72
2023/09/30 10:58:52;;;;;;;9.20;4.40;;;;;;;28.70;34.39;98385.03;5041396;28;20810;-71
2023/09/30 11:01:19;;;;;;;6.80;3.67;;;;;;;28.49;34.16;98385.47;5041991;28;20487;-72
2023/09/30 11:03:45;;;;;;;9.27;4.67;;;;;;;28.30;34.22;98384.00;5035524;28;21002;-72
2023/09/30 11:06:19;;;;;;;9.43;4.57;;;;;;;28.08;35.08;98384.63;5042190;28;20475;-71
2023/09/30 11:08:47;;;;;;;13.20;8.40;;;;;;;27.90;35.70;98380.22;5042407;28;20930;-71
2023/09/30 11:11:14;;;;;;;13.93;9.70;;;;;;;27.66;36.27;98374.88;5034523;28;21001;-72
2023/09/30 11:13:40;;;;;;;9.67;5.47;;;;;;;27.51;36.34;98364.56;5037111;28;20446;-71
2023/09/30 11:16:05;;;;;;;11.50;6.70;;;;;;;27.32;36.65;98358.47;5039735;28;20475;-71
2023/09/30 11:18:31;;;;;;;10.00;5.47;;;;;;;27.16;36.94;98357.25;5040353;28;20197;-72
2023/09/30 11:21:04;;;;;;;22.77;16.07;;;;;;;26.99;37.31;98365.19;5034815;28;20465;-71
2023/09/30 11:23:31;;;;;;;21.03;14.23;;;;;;;26.87;37.16;98367.03;5030121;28;20207;-71
2023/09/30 11:25:56;;;;;;;11.27;5.90;;;;;;;26.72;37.20;98362.88;5016109;28;20434;-71
2023/09/30 11:28:23;;;;;;;15.07;10.77;;;;;;;26.64;37.31;98365.88;5037605;28;20445;-71
2023/09/30 11:31:06;;;;;;;21.50;16.10;;;;;;;26.61;37.25;98359.13;5030037;28;20198;-71
2023/09/30 11:33:31;;;;;;;24.83;18.10;;;;;;;26.53;37.27;98357.56;5023966;28;20465;-72